createdAt,value
2018-07-31T00:02:09.676Z,23.50
2018-07-31T00:04:36.548Z,23.50
2018-07-31T00:07:03.467Z,23.50
2018-07-31T00:09:30.387Z,23.40
2018-07-31T00:11:57.303Z,23.40
2018-07-31T00:14:24.175Z,23.40
2018-07-31T00:16:51.087Z,23.40
2018-07-31T00:19:18.002Z,23.50
2018-07-31T00:21:44.918Z,23.40
2018-07-31T00:24:12.119Z,23.40
2018-07-31T00:26:39.007Z,23.40
2018-07-31T00:29:05.875Z,23.30
2018-07-31T00:31:32.762Z,23.30
2018-07-31T00:33:59.627Z,23.20
2018-07-31T00:36:26.515Z,23.20
2018-07-31T00:38:53.382Z,23.20
2018-07-31T00:41:20.307Z,23.10
2018-07-31T00:43:47.191Z,23.10
2018-07-31T00:46:14.084Z,23.10
2018-07-31T00:48:41.256Z,23.00
2018-07-31T00:51:08.156Z,23.00
2018-07-31T00:53:35.027Z,22.90
2018-07-31T00:56:01.919Z,22.90
2018-07-31T00:58:28.783Z,22.90
2018-07-31T01:00:55.676Z,22.90
2018-07-31T01:03:22.538Z,22.80
2018-07-31T01:05:49.403Z,22.80
2018-07-31T01:08:17.128Z,22.80
2018-07-31T01:10:45.200Z,22.80
2018-07-31T01:13:12.767Z,22.80
2018-07-31T01:15:39.639Z,22.80
2018-07-31T01:18:06.536Z,22.70
2018-07-31T01:20:33.479Z,22.70
2018-07-31T01:23:00.439Z,22.70
2018-07-31T01:25:27.570Z,22.60
2018-07-31T01:27:54.460Z,22.60
2018-07-31T01:30:21.323Z,22.50
2018-07-31T01:32:48.418Z,22.50
2018-07-31T01:35:15.311Z,22.50
2018-07-31T01:37:42.203Z,22.50
2018-07-31T01:40:09.071Z,22.50
2018-07-31T01:42:35.955Z,22.50
2018-07-31T01:45:02.848Z,22.40
2018-07-31T01:47:29.739Z,22.40
2018-07-31T01:49:56.612Z,22.30
2018-07-31T01:52:23.511Z,22.30
2018-07-31T01:54:50.376Z,22.30
2018-07-31T01:57:17.591Z,22.20
2018-07-31T01:59:44.496Z,22.10
2018-07-31T02:02:11.387Z,22.10
2018-07-31T02:04:38.255Z,22.10
2018-07-31T02:07:05.186Z,22.10
2018-07-31T02:09:32.137Z,22.10
2018-07-31T02:11:59.065Z,22.10
2018-07-31T02:14:25.940Z,22.10
2018-07-31T02:16:52.876Z,22.10
2018-07-31T02:19:19.840Z,22.10
2018-07-31T02:21:46.708Z,22.10
2018-07-31T02:24:13.635Z,22.10
2018-07-31T02:26:40.735Z,22.10
2018-07-31T02:29:07.647Z,22.10
2018-07-31T02:31:34.584Z,22.10
2018-07-31T02:34:01.508Z,22.10
2018-07-31T02:36:28.387Z,22.10
2018-07-31T02:38:55.324Z,22.10
2018-07-31T02:41:22.196Z,22.20
2018-07-31T02:43:49.064Z,22.10
2018-07-31T02:46:15.971Z,22.20
2018-07-31T02:48:42.845Z,22.20
2018-07-31T02:51:10.048Z,22.10
2018-07-31T02:53:36.924Z,22.10
2018-07-31T02:56:03.847Z,22.00
2018-07-31T02:58:30.719Z,21.90
2018-07-31T03:00:57.887Z,21.90
2018-07-31T03:03:25.075Z,21.90
2018-07-31T03:05:51.987Z,21.90
2018-07-31T03:08:19.101Z,21.80
2018-07-31T03:10:45.857Z,21.80
2018-07-31T03:13:12.772Z,21.80
2018-07-31T03:15:39.648Z,21.80
2018-07-31T03:18:06.584Z,21.80
2018-07-31T03:20:33.516Z,21.80
2018-07-31T03:23:00.384Z,21.80
2018-07-31T03:25:27.318Z,21.80
2018-07-31T03:27:54.195Z,21.80
2018-07-31T03:30:21.091Z,21.80
2018-07-31T03:32:48.004Z,21.80
2018-07-31T03:35:14.866Z,21.80
2018-07-31T03:37:41.777Z,21.80
2018-07-31T03:40:08.642Z,21.80
2018-07-31T03:42:35.550Z,21.80
2018-07-31T03:45:02.440Z,21.90
2018-07-31T03:47:29.361Z,21.90
2018-07-31T03:49:56.612Z,21.90
2018-07-31T03:52:23.507Z,21.90
2018-07-31T03:54:50.419Z,22.00
2018-07-31T03:57:17.324Z,22.00
2018-07-31T03:59:44.229Z,22.00
2018-07-31T04:02:11.304Z,22.00
2018-07-31T04:04:38.262Z,22.00
2018-07-31T04:07:05.192Z,21.90
2018-07-31T04:09:32.060Z,21.90
2018-07-31T04:11:58.943Z,21.90
2018-07-31T04:14:25.847Z,21.90
2018-07-31T04:16:52.790Z,21.90
2018-07-31T04:21:46.600Z,22.00
2018-07-31T04:24:13.471Z,22.10
2018-07-31T04:26:40.383Z,22.10
2018-07-31T04:29:07.278Z,22.20
2018-07-31T04:31:34.190Z,22.10
2018-07-31T04:34:01.359Z,22.20
2018-07-31T04:36:28.263Z,22.30
2018-07-31T04:38:55.175Z,22.30
2018-07-31T04:41:22.098Z,22.30
2018-07-31T04:43:48.987Z,22.30
2018-07-31T04:46:15.855Z,22.40
2018-07-31T04:48:42.723Z,22.50
2018-07-31T04:51:09.631Z,22.50
2018-07-31T04:53:36.496Z,22.50
2018-07-31T04:56:03.416Z,22.50
2018-07-31T04:58:30.276Z,22.50
2018-07-31T05:00:57.282Z,22.60
2018-07-31T05:03:24.531Z,22.60
2018-07-31T05:05:51.398Z,22.70
2018-07-31T05:08:18.359Z,22.70
2018-07-31T05:10:45.238Z,22.90
2018-07-31T05:13:12.135Z,23.00
2018-07-31T05:15:39.047Z,23.10
2018-07-31T05:18:05.906Z,23.30
2018-07-31T05:20:32.847Z,23.50
2018-07-31T05:22:59.770Z,23.60
2018-07-31T05:25:26.640Z,23.80
2018-07-31T05:27:54.210Z,24.00
2018-07-31T05:30:21.132Z,24.20
2018-07-31T05:32:48.217Z,24.40
2018-07-31T05:35:15.039Z,24.60
2018-07-31T05:37:41.911Z,24.70
2018-07-31T05:40:09.421Z,24.80
2018-07-31T05:42:36.356Z,24.90
2018-07-31T05:45:03.369Z,25.00
2018-07-31T05:47:30.255Z,25.20
2018-07-31T05:49:57.297Z,25.40
2018-07-31T05:52:24.199Z,25.60
2018-07-31T05:54:51.119Z,25.80
2018-07-31T05:57:17.990Z,25.90
2018-07-31T05:59:44.908Z,26.10
2018-07-31T06:02:11.859Z,26.40
2018-07-31T06:04:38.808Z,26.60
2018-07-31T06:07:05.674Z,26.80
2018-07-31T06:09:32.679Z,26.90
2018-07-31T06:11:59.579Z,27.10
2018-07-31T06:14:26.489Z,27.40
2018-07-31T06:16:53.407Z,27.70
2018-07-31T06:19:20.327Z,28.00
2018-07-31T06:21:47.194Z,28.40
2018-07-31T06:24:14.103Z,28.80
2018-07-31T06:26:41.247Z,29.10
2018-07-31T06:29:08.567Z,29.40
2018-07-31T06:31:35.443Z,29.70
2018-07-31T06:34:02.323Z,29.80
2018-07-31T06:36:29.240Z,30.00
2018-07-31T06:38:56.111Z,30.50
2018-07-31T06:41:23.091Z,30.90
2018-07-31T06:46:17.196Z,31.30
2018-07-31T06:48:44.052Z,31.70
2018-07-31T06:51:11.524Z,32.20
2018-07-31T06:53:38.467Z,32.50
2018-07-31T06:56:05.344Z,32.80
2018-07-31T06:58:32.260Z,32.60
2018-07-31T07:00:59.287Z,32.50
2018-07-31T07:03:26.295Z,32.50
2018-07-31T07:05:53.552Z,33.00
2018-07-31T07:08:20.751Z,33.70
2018-07-31T07:10:47.623Z,34.20
2018-07-31T07:13:14.821Z,34.10
2018-07-31T07:15:41.687Z,34.50
2018-07-31T07:18:08.667Z,34.90
2018-07-31T07:20:35.535Z,35.40
2018-07-31T07:23:02.408Z,35.80
2018-07-31T07:25:29.319Z,36.30
2018-07-31T07:27:56.255Z,36.60
2018-07-31T07:30:23.129Z,36.40
2018-07-31T07:32:49.999Z,36.70
2018-07-31T07:35:17.216Z,36.90
2018-07-31T07:37:44.564Z,37.10
2018-07-31T07:40:11.449Z,37.20
2018-07-31T07:42:38.643Z,37.50
2018-07-31T07:45:05.634Z,38.00
2018-07-31T07:47:32.552Z,38.60
2018-07-31T07:49:59.423Z,39.00
2018-07-31T07:52:26.322Z,39.10
2018-07-31T07:54:53.239Z,39.60
2018-07-31T07:57:20.113Z,40.40
2018-07-31T07:59:46.988Z,41.00
2018-07-31T08:02:13.903Z,41.20
2018-07-31T08:04:40.914Z,41.30
2018-07-31T08:07:07.876Z,41.20
2018-07-31T08:09:34.755Z,41.20
2018-07-31T08:12:01.791Z,41.00
2018-07-31T08:14:28.662Z,40.90
2018-07-31T08:16:55.530Z,41.50
2018-07-31T08:19:22.427Z,41.90
2018-07-31T08:21:49.339Z,41.90
2018-07-31T08:24:16.355Z,41.70
2018-07-31T08:26:43.276Z,41.90
2018-07-31T08:29:10.191Z,42.50
2018-07-31T08:31:37.099Z,42.40
2018-07-31T08:34:04.270Z,42.50
2018-07-31T08:36:31.503Z,42.50
2018-07-31T08:38:59.063Z,42.40
2018-07-31T08:41:26.061Z,42.40
2018-07-31T08:43:52.884Z,42.50
2018-07-31T08:46:19.807Z,42.50
2018-07-31T08:48:46.675Z,42.50
2018-07-31T08:51:13.555Z,42.80
2018-07-31T08:53:40.500Z,42.90
2018-07-31T08:56:07.371Z,43.50
2018-07-31T08:58:34.379Z,44.30
2018-07-31T09:01:01.243Z,44.80
2018-07-31T09:03:28.132Z,44.30
2018-07-31T09:05:55.100Z,44.20
2018-07-31T09:08:22.100Z,44.20
2018-07-31T09:10:49.051Z,44.40
2018-07-31T09:13:15.932Z,44.60
2018-07-31T09:15:42.807Z,45.80
2018-07-31T09:18:09.722Z,46.30
2018-07-31T09:20:36.596Z,46.70
2018-07-31T09:23:03.551Z,46.60
2018-07-31T09:25:36.356Z,46.80
2018-07-31T09:28:03.285Z,46.80
2018-07-31T09:30:30.193Z,46.80
2018-07-31T09:33:02.860Z,46.70
2018-07-31T09:35:30.036Z,46.90
2018-07-31T09:37:56.932Z,47.60
2018-07-31T09:40:23.875Z,48.30
2018-07-31T09:42:50.757Z,48.20
2018-07-31T09:45:17.623Z,48.70
2018-07-31T09:47:44.539Z,49.00
2018-07-31T09:50:11.648Z,49.00
2018-07-31T09:52:38.564Z,48.90
2018-07-31T09:55:05.443Z,48.60
2018-07-31T09:57:32.367Z,48.50
2018-07-31T09:59:59.344Z,48.60
2018-07-31T10:02:26.208Z,48.20
2018-07-31T10:04:53.099Z,48.50
2018-07-31T10:07:20.011Z,47.80
2018-07-31T10:09:46.880Z,48.20
2018-07-31T10:12:14.163Z,48.20
2018-07-31T10:14:41.052Z,48.80
2018-07-31T10:17:08.251Z,49.30
2018-07-31T10:19:35.612Z,49.20
2018-07-31T10:22:02.483Z,48.80
2018-07-31T10:24:29.369Z,48.70
2018-07-31T10:26:56.299Z,48.50
2018-07-31T10:31:50.092Z,48.20
2018-07-31T10:34:17.012Z,48.40
2018-07-31T10:36:43.888Z,48.90
2018-07-31T10:39:10.803Z,49.40
2018-07-31T10:41:37.675Z,49.90
2018-07-31T10:44:04.642Z,50.20
2018-07-31T10:46:31.532Z,49.80
2018-07-31T10:48:58.409Z,49.80
2018-07-31T10:51:25.310Z,49.80
2018-07-31T10:53:52.225Z,49.80
2018-07-31T10:56:19.103Z,50.20
2018-07-31T10:58:46.037Z,50.70
2018-07-31T11:01:12.936Z,51.20
2018-07-31T11:03:39.851Z,50.60
2018-07-31T11:06:06.755Z,50.50
2018-07-31T11:08:33.695Z,51.60
2018-07-31T11:11:00.563Z,51.50
2018-07-31T11:13:27.484Z,50.70
2018-07-31T11:15:54.384Z,50.00
2018-07-31T11:18:21.300Z,50.60
2018-07-31T11:20:48.261Z,49.80
2018-07-31T11:23:15.111Z,49.00
2018-07-31T11:25:42.028Z,49.70
2018-07-31T11:28:08.944Z,49.90
2018-07-31T11:30:35.815Z,49.90
2018-07-31T11:33:02.799Z,50.10
2018-07-31T11:35:29.643Z,50.60
2018-07-31T11:37:56.520Z,51.00
2018-07-31T11:40:23.435Z,51.40
2018-07-31T11:42:50.347Z,51.60
2018-07-31T11:45:17.508Z,49.50
2018-07-31T11:47:44.555Z,50.20
2018-07-31T11:50:11.482Z,49.90
2018-07-31T11:52:38.359Z,49.80
2018-07-31T11:55:05.280Z,49.80
2018-07-31T11:57:32.155Z,50.20
2018-07-31T11:59:59.074Z,50.60
2018-07-31T12:02:25.952Z,50.10
2018-07-31T12:04:53.144Z,49.20
2018-07-31T12:07:20.056Z,49.50
2018-07-31T12:09:46.983Z,51.00
2018-07-31T12:12:13.884Z,50.70
2018-07-31T12:14:40.784Z,49.30
2018-07-31T12:17:07.656Z,48.30
2018-07-31T12:19:34.575Z,46.90
2018-07-31T12:22:01.716Z,46.10
2018-07-31T12:24:29.496Z,46.20
2018-07-31T12:26:56.416Z,47.60
2018-07-31T12:29:23.332Z,46.80
2018-07-31T12:31:50.218Z,45.40
2018-07-31T12:34:17.094Z,44.10
2018-07-31T12:36:44.016Z,43.90
2018-07-31T12:39:11.959Z,44.70
2018-07-31T12:41:38.886Z,46.20
2018-07-31T12:44:05.828Z,47.50
2018-07-31T12:46:32.749Z,49.10
2018-07-31T12:48:59.721Z,50.00
2018-07-31T12:51:26.595Z,50.50
2018-07-31T12:53:53.546Z,50.50
2018-07-31T12:56:20.411Z,50.00
2018-07-31T12:58:47.279Z,50.00
2018-07-31T13:01:14.203Z,50.80
2018-07-31T13:03:41.114Z,51.30
2018-07-31T13:06:07.978Z,51.00
2018-07-31T13:08:34.892Z,49.40
2018-07-31T13:11:01.770Z,49.00
2018-07-31T13:13:28.699Z,48.60
2018-07-31T13:15:55.573Z,47.50
2018-07-31T13:18:22.602Z,44.60
2018-07-31T13:20:49.509Z,43.50
2018-07-31T13:23:16.423Z,43.00
2018-07-31T13:25:43.291Z,44.00
2018-07-31T13:28:10.213Z,45.20
2018-07-31T13:30:43.843Z,46.80
2018-07-31T13:33:10.754Z,47.80
2018-07-31T13:35:37.640Z,48.80
2018-07-31T13:38:04.532Z,49.50
2018-07-31T13:40:31.463Z,49.50
2018-07-31T13:42:58.352Z,48.50
2018-07-31T13:45:25.223Z,48.70
2018-07-31T13:47:52.131Z,49.30
2018-07-31T13:50:19.032Z,50.30
2018-07-31T13:52:45.934Z,51.00
2018-07-31T13:55:12.933Z,51.70
2018-07-31T13:57:40.144Z,52.00
2018-07-31T14:00:07.024Z,51.60
2018-07-31T14:02:33.895Z,50.70
2018-07-31T14:05:00.815Z,49.90
2018-07-31T14:07:27.682Z,47.70
2018-07-31T14:09:54.571Z,45.30
2018-07-31T14:12:21.496Z,43.60
2018-07-31T14:14:48.363Z,42.20
2018-07-31T14:17:15.277Z,41.10
2018-07-31T14:19:42.175Z,40.40
2018-07-31T14:22:09.087Z,39.70
2018-07-31T14:24:36.019Z,39.10
2018-07-31T14:27:02.884Z,39.00
2018-07-31T14:29:30.060Z,39.20
2018-07-31T14:31:57.207Z,39.50
2018-07-31T14:34:24.135Z,40.60
2018-07-31T14:36:51.011Z,41.90
2018-07-31T14:39:17.890Z,43.00
2018-07-31T14:41:44.804Z,42.70
2018-07-31T14:44:11.728Z,42.30
2018-07-31T14:46:38.623Z,41.40
2018-07-31T14:49:05.538Z,40.40
2018-07-31T14:51:32.480Z,39.70
2018-07-31T14:53:59.405Z,39.50
2018-07-31T14:56:26.707Z,39.20
2018-07-31T14:58:53.580Z,39.20
2018-07-31T15:01:20.492Z,39.30
2018-07-31T15:03:47.447Z,39.30
2018-07-31T15:06:14.363Z,40.30
2018-07-31T15:08:41.560Z,41.50
2018-07-31T15:11:09.200Z,42.70
2018-07-31T15:13:36.096Z,43.50
2018-07-31T15:16:03.152Z,43.30
2018-07-31T15:18:30.107Z,42.30
2018-07-31T15:20:56.975Z,42.10
2018-07-31T15:23:24.105Z,42.20
2018-07-31T15:25:51.071Z,41.60
2018-07-31T15:28:18.304Z,40.70
2018-07-31T15:30:45.298Z,40.00
2018-07-31T15:33:12.165Z,39.40
2018-07-31T15:35:39.094Z,38.90
2018-07-31T15:38:05.995Z,38.50
2018-07-31T15:40:32.907Z,38.00
2018-07-31T15:42:59.772Z,37.70
2018-07-31T15:45:26.939Z,37.40
2018-07-31T15:47:53.812Z,37.30
2018-07-31T15:50:20.724Z,37.10
2018-07-31T15:52:47.644Z,36.90
2018-07-31T15:55:14.519Z,36.80
2018-07-31T15:57:41.440Z,36.60
2018-07-31T16:00:09.081Z,36.50
2018-07-31T16:02:36.071Z,36.40
2018-07-31T16:05:03.028Z,36.20
2018-07-31T16:07:29.930Z,36.10
2018-07-31T16:09:56.791Z,35.90
2018-07-31T16:12:23.704Z,35.60
2018-07-31T16:14:50.607Z,35.00
2018-07-31T16:17:17.580Z,34.00
2018-07-31T16:19:44.412Z,33.50
2018-07-31T16:22:11.367Z,33.10
2018-07-31T16:24:38.228Z,32.90
2018-07-31T16:27:05.151Z,32.70
2018-07-31T16:29:32.840Z,32.70
2018-07-31T16:31:59.760Z,32.80
2018-07-31T16:34:26.679Z,32.90
2018-07-31T16:36:53.583Z,32.90
2018-07-31T16:39:20.491Z,32.90
2018-07-31T16:41:47.358Z,32.90
2018-07-31T16:44:14.327Z,32.90
2018-07-31T16:46:41.199Z,32.90
2018-07-31T16:49:08.083Z,33.00
2018-07-31T16:51:34.971Z,33.10
2018-07-31T16:54:01.839Z,33.30
2018-07-31T16:56:28.722Z,33.40
2018-07-31T16:58:55.662Z,33.50
2018-07-31T17:01:22.591Z,33.50
2018-07-31T17:03:49.458Z,33.30
2018-07-31T17:06:16.344Z,33.30
2018-07-31T17:08:43.480Z,33.30
2018-07-31T17:11:10.391Z,33.20
2018-07-31T17:13:37.264Z,33.10
2018-07-31T17:16:04.164Z,33.10
2018-07-31T17:18:31.060Z,32.90
2018-07-31T17:20:57.976Z,32.80
2018-07-31T17:23:24.847Z,32.70
2018-07-31T17:25:51.715Z,32.60
2018-07-31T17:28:18.700Z,32.60
2018-07-31T17:30:45.571Z,32.50
2018-07-31T17:33:12.467Z,32.50
2018-07-31T17:35:39.343Z,32.50
2018-07-31T17:38:06.239Z,32.50
2018-07-31T17:40:33.111Z,32.40
2018-07-31T17:43:00.002Z,32.10
2018-07-31T17:45:26.871Z,31.90
2018-07-31T17:47:53.768Z,31.70
2018-07-31T17:50:20.639Z,31.60
2018-07-31T17:52:47.576Z,31.50
2018-07-31T17:55:14.436Z,31.40
2018-07-31T17:57:41.331Z,31.40
2018-07-31T18:00:08.243Z,31.40
2018-07-31T18:02:35.132Z,31.40
2018-07-31T18:05:02.029Z,31.30
2018-07-31T18:07:28.915Z,31.30
2018-07-31T18:09:55.789Z,31.30
2018-07-31T18:12:22.678Z,31.30
2018-07-31T18:14:49.698Z,31.20
2018-07-31T18:17:16.507Z,31.20
2018-07-31T18:19:43.367Z,31.20
2018-07-31T18:22:10.238Z,31.20
2018-07-31T18:24:37.132Z,31.20
2018-07-31T18:27:04.027Z,31.10
2018-07-31T18:29:30.906Z,31.10
2018-07-31T18:31:57.776Z,31.00
2018-07-31T18:34:24.663Z,30.80
2018-07-31T18:36:51.533Z,30.80
2018-07-31T18:39:18.431Z,30.70
2018-07-31T18:41:45.296Z,30.70
2018-07-31T18:44:12.180Z,30.70
2018-07-31T18:46:39.271Z,30.70
2018-07-31T18:49:06.163Z,30.70
2018-07-31T18:51:33.103Z,30.70
2018-07-31T18:53:59.987Z,30.60
2018-07-31T18:56:26.858Z,30.40
2018-07-31T18:58:53.739Z,30.30
2018-07-31T19:01:20.722Z,30.10
2018-07-31T19:03:47.520Z,30.00
2018-07-31T19:06:14.400Z,29.90
2018-07-31T19:08:41.430Z,29.80
2018-07-31T19:11:08.563Z,29.80
2018-07-31T19:13:35.451Z,29.70
2018-07-31T19:16:02.321Z,29.50
2018-07-31T19:20:56.122Z,29.30
2018-07-31T19:23:22.993Z,29.20
2018-07-31T19:25:49.880Z,29.20
2018-07-31T19:28:16.757Z,29.10
2018-07-31T19:30:43.683Z,29.10
2018-07-31T19:33:10.568Z,29.10
2018-07-31T19:35:37.463Z,29.10
2018-07-31T19:38:04.331Z,29.10
2018-07-31T19:40:31.240Z,29.10
2018-07-31T19:42:58.127Z,29.10
2018-07-31T19:45:25.029Z,29.20
2018-07-31T19:47:52.032Z,29.20
2018-07-31T19:50:18.952Z,29.20
2018-07-31T19:52:45.818Z,29.20
2018-07-31T19:55:12.929Z,29.30
2018-07-31T19:57:39.803Z,29.30
2018-07-31T20:00:06.854Z,29.30
2018-07-31T20:02:33.719Z,29.30
2018-07-31T20:05:00.594Z,29.20
2018-07-31T20:07:27.460Z,29.20
2018-07-31T20:09:54.352Z,29.10
2018-07-31T20:12:21.221Z,29.10
2018-07-31T20:14:48.099Z,29.10
2018-07-31T20:17:14.996Z,29.00
2018-07-31T20:19:41.883Z,29.00
2018-07-31T20:22:08.755Z,29.00
2018-07-31T20:24:35.659Z,28.90
2018-07-31T20:29:29.426Z,28.70
2018-07-31T20:31:56.631Z,28.70
2018-07-31T20:34:23.515Z,28.60
2018-07-31T20:36:50.408Z,28.50
2018-07-31T20:39:17.281Z,28.40
2018-07-31T20:41:44.210Z,28.30
2018-07-31T20:44:11.143Z,28.30
2018-07-31T20:46:38.318Z,28.20
2018-07-31T20:49:05.187Z,28.10
2018-07-31T20:51:32.080Z,28.00
2018-07-31T20:53:58.947Z,28.00
2018-07-31T20:56:25.843Z,28.00
2018-07-31T20:58:53.230Z,27.90
2018-07-31T21:01:20.119Z,27.90
2018-07-31T21:03:47.038Z,27.90
2018-07-31T21:06:14.192Z,27.80
2018-07-31T21:08:41.347Z,27.80
2018-07-31T21:11:08.352Z,27.80
2018-07-31T21:13:35.226Z,27.70
2018-07-31T21:16:02.124Z,27.70
2018-07-31T21:18:29.046Z,27.60
2018-07-31T21:20:56.259Z,27.60
2018-07-31T21:23:23.159Z,27.60
2018-07-31T21:25:50.066Z,27.50
2018-07-31T21:28:16.956Z,27.50
2018-07-31T21:30:43.829Z,27.40
2018-07-31T21:33:10.722Z,27.40
2018-07-31T21:35:37.596Z,27.30
2018-07-31T21:38:04.491Z,27.20
2018-07-31T21:40:31.367Z,27.20
2018-07-31T21:42:58.560Z,27.20
2018-07-31T21:45:25.608Z,27.20
2018-07-31T21:47:52.521Z,27.10
2018-07-31T21:50:19.460Z,27.20
2018-07-31T21:52:46.405Z,27.10
2018-07-31T21:55:13.258Z,27.10
2018-07-31T21:57:40.159Z,27.10
2018-07-31T22:00:08.094Z,27.10
2018-07-31T22:02:35.056Z,27.10
2018-07-31T22:05:01.932Z,27.10
2018-07-31T22:07:28.827Z,27.00
2018-07-31T22:09:55.700Z,27.00
2018-07-31T22:12:22.587Z,26.90
2018-07-31T22:14:49.455Z,26.90
2018-07-31T22:17:16.391Z,26.70
2018-07-31T22:19:43.261Z,26.70
2018-07-31T22:22:10.207Z,26.60
2018-07-31T22:24:37.124Z,26.50
2018-07-31T22:29:30.906Z,26.30
2018-07-31T22:31:57.783Z,26.20
2018-07-31T22:34:24.948Z,26.10
2018-07-31T22:36:51.827Z,26.00
2018-07-31T22:39:18.779Z,25.90
2018-07-31T22:41:45.639Z,25.80
2018-07-31T22:44:12.532Z,25.70
2018-07-31T22:46:39.398Z,25.70
2018-07-31T22:49:06.287Z,25.60
2018-07-31T22:51:33.159Z,25.40
2018-07-31T22:54:00.328Z,25.40
2018-07-31T22:56:27.219Z,25.30
2018-07-31T22:58:54.115Z,25.20
2018-07-31T23:01:20.988Z,25.10
2018-07-31T23:03:48.088Z,25.00
2018-07-31T23:06:14.955Z,24.90
2018-07-31T23:08:41.839Z,24.80
2018-07-31T23:11:08.730Z,24.70
2018-07-31T23:13:35.619Z,24.60
2018-07-31T23:16:02.497Z,24.50
2018-07-31T23:18:29.403Z,24.50
2018-07-31T23:20:56.357Z,24.40
2018-07-31T23:23:23.204Z,24.40
2018-07-31T23:25:50.075Z,24.30
2018-07-31T23:28:16.944Z,24.20
2018-07-31T23:30:44.100Z,24.20
2018-07-31T23:33:11.202Z,24.10
2018-07-31T23:35:38.316Z,24.00
2018-07-31T23:38:05.175Z,24.00
2018-07-31T23:40:32.067Z,23.90
2018-07-31T23:42:59.190Z,23.80
2018-07-31T23:45:26.075Z,23.80
2018-07-31T23:47:52.938Z,23.80
2018-07-31T23:50:19.851Z,23.70
2018-07-31T23:52:46.768Z,23.60
2018-07-31T23:55:13.663Z,23.60
2018-07-31T23:57:40.536Z,23.60
